createdAt,value
2018-12-16T00:01:20.288Z,116.87
2018-12-16T00:03:27.082Z,114.37
2018-12-16T00:05:34.143Z,116.53
2018-12-16T00:07:41.130Z,114.40
2018-12-16T00:09:48.012Z,115.97
2018-12-16T00:11:55.771Z,107.77
2018-12-16T00:14:02.622Z,109.93
2018-12-16T00:16:09.562Z,104.03
2018-12-16T00:18:16.210Z,100.63
2018-12-16T00:20:23.049Z,119.47
2018-12-16T00:22:30.216Z,123.37
2018-12-16T00:24:36.906Z,135.17
2018-12-16T00:26:53.842Z,158.05
2018-12-16T00:29:00.478Z,152.30
2018-12-16T00:31:07.290Z,142.53
2018-12-16T00:33:14.480Z,149.00
2018-12-16T00:35:21.164Z,138.00
2018-12-16T00:37:28.046Z,130.73
2018-12-16T00:39:34.894Z,140.30
2018-12-16T00:41:41.757Z,139.57
2018-12-16T00:43:48.580Z,133.20
2018-12-16T00:45:55.634Z,140.37
2018-12-16T00:48:02.218Z,143.07
2018-12-16T00:50:09.534Z,147.47
2018-12-16T00:52:16.358Z,143.17
2018-12-16T00:54:23.365Z,149.50
2018-12-16T00:56:30.214Z,142.17
2018-12-16T00:58:37.313Z,141.17
2018-12-16T01:00:44.006Z,143.10
2018-12-16T01:02:50.873Z,148.47
2018-12-16T01:04:57.764Z,137.67
2018-12-16T01:07:04.585Z,140.50
2018-12-16T01:09:11.172Z,136.20
2018-12-16T01:11:17.902Z,135.20
2018-12-16T01:13:25.172Z,130.30
2018-12-16T01:15:32.076Z,124.67
2018-12-16T01:17:39.022Z,125.13
2018-12-16T01:19:45.745Z,132.47
2018-12-16T01:21:52.442Z,124.83
2018-12-16T01:23:59.357Z,128.87
2018-12-16T01:26:06.248Z,132.30
2018-12-16T01:28:13.711Z,130.77
2018-12-16T01:30:20.837Z,122.40
2018-12-16T01:32:27.325Z,134.00
2018-12-16T01:34:34.088Z,137.10
2018-12-16T01:36:41.069Z,136.00
2018-12-16T01:38:47.805Z,131.43
2018-12-16T01:40:54.505Z,139.43
2018-12-16T01:43:01.487Z,145.40
2018-12-16T01:45:08.226Z,140.33
2018-12-16T01:47:15.107Z,125.47
2018-12-16T01:49:22.090Z,131.93
2018-12-16T01:51:28.698Z,141.90
2018-12-16T01:53:35.501Z,140.57
2018-12-16T01:55:42.359Z,140.97
2018-12-16T01:57:49.209Z,144.27
2018-12-16T01:59:56.033Z,145.07
2018-12-16T02:02:02.862Z,146.53
2018-12-16T02:04:10.515Z,147.83
2018-12-16T02:06:17.199Z,148.20
2018-12-16T02:08:23.878Z,134.20
2018-12-16T02:10:30.938Z,129.83
2018-12-16T02:12:37.758Z,133.60
2018-12-16T02:14:44.642Z,126.70
2018-12-16T02:16:51.768Z,128.67
2018-12-16T02:18:58.553Z,124.83
2018-12-16T02:21:05.270Z,125.47
2018-12-16T02:23:11.994Z,134.13
2018-12-16T02:25:18.849Z,128.53
2018-12-16T02:27:25.318Z,129.47
2018-12-16T02:29:32.086Z,129.37
2018-12-16T02:31:39.337Z,133.70
2018-12-16T02:33:46.187Z,129.17
2018-12-16T02:35:53.038Z,132.43
2018-12-16T02:38:00.005Z,134.40
2018-12-16T02:40:06.915Z,131.87
2018-12-16T02:42:14.178Z,135.10
2018-12-16T02:44:21.281Z,137.27
2018-12-16T02:46:28.134Z,135.73
2018-12-16T02:48:35.379Z,143.50
2018-12-16T02:50:42.209Z,141.80
2018-12-16T02:52:48.923Z,142.73
2018-12-16T02:54:55.912Z,142.70
2018-12-16T02:57:02.745Z,147.63
2018-12-16T02:59:09.701Z,149.73
2018-12-16T03:01:16.514Z,148.33
2018-12-16T03:03:23.471Z,150.13
2018-12-16T03:05:30.396Z,149.07
2018-12-16T03:07:37.329Z,135.70
2018-12-16T03:09:44.112Z,139.63
2018-12-16T03:11:51.862Z,136.17
2018-12-16T03:13:58.587Z,137.13
2018-12-16T03:16:05.546Z,128.33
2018-12-16T03:18:12.366Z,133.00
2018-12-16T03:20:19.092Z,125.87
2018-12-16T03:22:25.839Z,126.93
2018-12-16T03:24:32.564Z,121.27
2018-12-16T03:26:39.414Z,120.83
2018-12-16T03:28:46.023Z,138.43
2018-12-16T03:30:53.103Z,142.30
2018-12-16T03:32:59.903Z,136.83
2018-12-16T03:35:07.040Z,133.23
2018-12-16T03:37:13.932Z,135.37
2018-12-16T03:39:20.708Z,137.37
2018-12-16T03:41:27.597Z,139.67
2018-12-16T03:43:34.439Z,141.10
2018-12-16T03:45:41.433Z,142.77
2018-12-16T03:47:48.256Z,144.50
2018-12-16T03:49:55.473Z,148.60
2018-12-16T03:52:02.402Z,151.37
2018-12-16T03:54:09.288Z,148.27
2018-12-16T03:56:16.875Z,148.50
2018-12-16T03:58:23.920Z,151.17
2018-12-16T04:00:30.770Z,148.40
2018-12-16T04:02:37.561Z,150.83
2018-12-16T04:04:44.313Z,155.97
2018-12-16T04:06:50.984Z,156.73
2018-12-16T04:08:57.910Z,158.80
2018-12-16T04:11:05.131Z,153.17
2018-12-16T04:13:11.961Z,161.23
2018-12-16T04:15:18.825Z,156.80
2018-12-16T04:17:25.704Z,151.33
2018-12-16T04:19:32.357Z,151.43
2018-12-16T04:21:39.194Z,144.87
2018-12-16T04:23:46.344Z,140.77
2018-12-16T04:25:53.025Z,140.07
2018-12-16T04:27:59.849Z,144.77
2018-12-16T04:30:07.516Z,130.83
2018-12-16T04:32:14.562Z,142.10
2018-12-16T04:34:21.238Z,144.97
2018-12-16T04:36:28.148Z,147.67
2018-12-16T04:38:34.991Z,145.07
2018-12-16T04:40:41.712Z,146.33
2018-12-16T04:42:48.472Z,146.27
2018-12-16T04:44:55.581Z,152.40
2018-12-16T04:47:02.203Z,149.13
2018-12-16T04:49:09.163Z,148.83
2018-12-16T04:51:16.059Z,152.37
2018-12-16T04:53:22.910Z,153.20
2018-12-16T04:55:29.927Z,156.97
2018-12-16T04:57:36.602Z,153.47
2018-12-16T04:59:43.689Z,152.00
2018-12-16T05:01:50.469Z,159.50
2018-12-16T05:03:57.422Z,158.97
2018-12-16T05:06:04.369Z,158.37
2018-12-16T05:08:11.471Z,161.30
2018-12-16T05:10:29.214Z,161.37
2018-12-16T05:12:36.110Z,165.70
2018-12-16T05:14:43.167Z,165.67
2018-12-16T05:16:49.936Z,164.23
2018-12-16T05:18:56.848Z,149.97
2018-12-16T05:21:03.571Z,155.57
2018-12-16T05:23:10.289Z,152.00
2018-12-16T05:25:17.182Z,147.60
2018-12-16T05:27:23.927Z,152.23
2018-12-16T05:29:30.595Z,148.07
2018-12-16T05:31:37.562Z,144.23
2018-12-16T05:33:44.358Z,135.00
2018-12-16T05:35:51.002Z,132.30
2018-12-16T05:37:57.967Z,118.27
2018-12-16T05:40:04.821Z,112.83
2018-12-16T05:42:11.809Z,107.40
2018-12-16T05:44:18.692Z,114.17
2018-12-16T05:46:25.434Z,118.23
2018-12-16T05:48:32.432Z,118.53
2018-12-16T05:50:39.381Z,131.13
2018-12-16T05:52:46.148Z,128.87
2018-12-16T05:54:52.623Z,134.67
2018-12-16T05:56:59.634Z,137.97
2018-12-16T05:59:06.492Z,138.83
2018-12-16T06:01:13.233Z,146.10
2018-12-16T06:03:20.038Z,148.07
2018-12-16T06:05:27.185Z,148.03
2018-12-16T06:07:34.011Z,147.63
2018-12-16T06:09:41.269Z,151.03
2018-12-16T06:11:48.493Z,151.37
2018-12-16T06:13:55.701Z,149.90
2018-12-16T06:16:02.726Z,149.37
2018-12-16T06:18:09.809Z,148.50
2018-12-16T06:20:16.698Z,148.63
2018-12-16T06:22:23.509Z,155.13
2018-12-16T06:24:30.542Z,154.70
2018-12-16T06:26:37.299Z,152.87
2018-12-16T06:28:43.991Z,143.63
2018-12-16T06:30:51.097Z,142.27
2018-12-16T06:32:57.826Z,131.43
2018-12-16T06:35:04.631Z,124.73
2018-12-16T06:37:11.512Z,119.70
2018-12-16T06:39:18.153Z,121.10
2018-12-16T06:41:25.248Z,111.37
2018-12-16T06:43:32.294Z,108.63
2018-12-16T06:45:39.018Z,113.67
2018-12-16T06:47:45.742Z,141.33
2018-12-16T06:49:52.483Z,130.17
2018-12-16T06:51:59.302Z,130.47
2018-12-16T06:54:06.151Z,137.83
2018-12-16T06:56:13.283Z,139.90
2018-12-16T06:58:20.568Z,141.10
2018-12-16T07:00:27.580Z,142.63
2018-12-16T07:02:34.254Z,145.87
2018-12-16T07:04:41.166Z,148.00
2018-12-16T07:06:48.361Z,147.23
2018-12-16T07:08:55.287Z,149.03
2018-12-16T07:11:02.430Z,154.17
2018-12-16T07:13:09.263Z,154.23
2018-12-16T07:15:16.141Z,154.43
2018-12-16T07:17:23.305Z,156.70
2018-12-16T07:19:30.102Z,152.87
2018-12-16T07:21:37.036Z,141.53
2018-12-16T07:23:43.808Z,130.10
2018-12-16T07:25:50.705Z,124.93
2018-12-16T07:27:57.593Z,120.07
2018-12-16T07:30:04.614Z,117.13
2018-12-16T07:32:11.438Z,115.33
2018-12-16T07:34:18.295Z,125.60
2018-12-16T07:36:25.106Z,124.67
2018-12-16T07:38:31.759Z,137.47
2018-12-16T07:40:38.698Z,148.83
2018-12-16T07:42:46.067Z,135.43
2018-12-16T07:44:53.403Z,135.40
2018-12-16T07:47:00.586Z,146.73
2018-12-16T07:49:07.171Z,144.67
2018-12-16T07:51:14.112Z,144.63
2018-12-16T07:53:20.875Z,143.50
2018-12-16T07:55:27.532Z,142.93
2018-12-16T07:57:34.525Z,148.13
2018-12-16T07:59:41.203Z,148.63
2018-12-16T08:01:48.503Z,150.40
2018-12-16T08:03:55.251Z,148.13
2018-12-16T08:06:01.962Z,147.70
2018-12-16T08:08:08.894Z,150.40
2018-12-16T08:10:16.034Z,151.37
2018-12-16T08:12:22.957Z,152.13
2018-12-16T08:14:29.741Z,140.37
2018-12-16T08:16:36.958Z,136.20
2018-12-16T08:18:44.254Z,128.13
2018-12-16T08:20:51.211Z,122.80
2018-12-16T08:22:58.719Z,118.37
2018-12-16T08:25:05.841Z,114.43
2018-12-16T08:27:12.747Z,115.27
2018-12-16T08:29:19.529Z,109.70
2018-12-16T08:31:27.065Z,108.27
2018-12-16T08:33:33.881Z,123.97
2018-12-16T08:35:40.857Z,123.97
2018-12-16T08:37:47.522Z,128.37
2018-12-16T08:39:54.320Z,134.87
2018-12-16T08:42:01.193Z,140.13
2018-12-16T08:44:08.027Z,141.93
2018-12-16T08:46:15.003Z,141.40
2018-12-16T08:48:22.007Z,142.10
2018-12-16T08:50:28.974Z,143.17
2018-12-16T08:52:35.944Z,145.00
2018-12-16T08:54:43.626Z,147.20
2018-12-16T08:56:50.713Z,146.43
2018-12-16T08:58:57.522Z,149.03
2018-12-16T09:01:04.346Z,147.03
2018-12-16T09:03:12.297Z,149.53
2018-12-16T09:05:19.145Z,150.60
2018-12-16T09:07:25.863Z,149.63
2018-12-16T09:09:32.951Z,148.80
2018-12-16T09:11:39.748Z,149.27
2018-12-16T09:13:47.427Z,152.87
2018-12-16T09:15:54.427Z,148.70
2018-12-16T09:18:00.983Z,142.23
2018-12-16T09:20:07.929Z,136.73
2018-12-16T09:22:14.784Z,138.60
2018-12-16T09:24:22.217Z,133.53
2018-12-16T09:26:29.060Z,125.70
2018-12-16T09:28:36.281Z,127.40
2018-12-16T09:30:43.241Z,128.60
2018-12-16T09:32:50.106Z,138.10
2018-12-16T09:34:56.850Z,129.67
2018-12-16T09:37:03.563Z,125.73
2018-12-16T09:39:10.984Z,122.73
2018-12-16T09:41:17.786Z,110.53
2018-12-16T09:43:24.506Z,106.37
2018-12-16T09:45:31.403Z,104.73
2018-12-16T09:47:38.290Z,103.00
2018-12-16T09:49:45.206Z,98.77
2018-12-16T09:51:52.229Z,97.30
2018-12-16T09:53:59.334Z,94.20
2018-12-16T09:56:06.090Z,89.83
2018-12-16T09:58:13.126Z,104.70
2018-12-16T10:00:19.909Z,118.63
2018-12-16T10:02:26.462Z,104.83
2018-12-16T10:04:33.662Z,110.47
2018-12-16T10:06:40.553Z,117.67
2018-12-16T10:08:47.304Z,121.43
2018-12-16T10:10:54.110Z,125.20
2018-12-16T10:13:00.870Z,126.73
2018-12-16T10:15:08.522Z,126.90
2018-12-16T10:17:15.294Z,129.43
2018-12-16T10:19:22.054Z,129.20
2018-12-16T10:21:28.798Z,133.70
2018-12-16T10:23:35.674Z,131.37
2018-12-16T10:25:43.134Z,135.20
2018-12-16T10:27:49.830Z,134.97
2018-12-16T10:29:56.556Z,136.57
2018-12-16T10:32:03.461Z,140.07
2018-12-16T10:34:10.395Z,141.70
2018-12-16T10:36:17.330Z,143.13
2018-12-16T10:38:24.411Z,142.63
2018-12-16T10:40:31.206Z,130.43
2018-12-16T10:42:37.942Z,124.47
2018-12-16T10:44:44.522Z,116.60
2018-12-16T10:46:51.963Z,109.90
2018-12-16T10:49:04.690Z,112.60
2018-12-16T10:51:08.049Z,107.13
2018-12-16T10:53:15.169Z,99.57
2018-12-16T10:55:21.818Z,101.30
2018-12-16T10:57:28.485Z,103.30
2018-12-16T10:59:35.359Z,115.87
2018-12-16T11:01:42.450Z,135.63
2018-12-16T11:03:49.367Z,130.97
2018-12-16T11:05:56.666Z,127.80
2018-12-16T11:08:03.279Z,125.73
2018-12-16T11:10:10.007Z,121.40
2018-12-16T11:12:17.596Z,122.60
2018-12-16T11:14:25.467Z,128.63
2018-12-16T11:16:32.282Z,126.60
2018-12-16T11:18:39.419Z,135.07
2018-12-16T11:20:46.221Z,131.60
2018-12-16T11:22:53.215Z,135.63
2018-12-16T11:25:05.619Z,135.53
2018-12-16T11:27:10.662Z,139.20
2018-12-16T11:29:17.394Z,129.57
2018-12-16T11:31:24.655Z,125.40
2018-12-16T11:33:31.882Z,119.90
2018-12-16T11:35:38.705Z,108.17
2018-12-16T11:37:45.602Z,109.63
2018-12-16T11:39:53.547Z,101.93
2018-12-16T11:42:00.770Z,102.13
2018-12-16T11:44:08.284Z,96.77
2018-12-16T11:46:15.355Z,95.73
2018-12-16T11:48:22.133Z,95.00
2018-12-16T11:50:29.852Z,110.97
2018-12-16T11:52:36.707Z,126.37
2018-12-16T11:54:43.926Z,127.03
2018-12-16T11:56:51.074Z,136.13
2018-12-16T11:58:57.830Z,131.80
2018-12-16T12:01:04.982Z,130.33
2018-12-16T12:03:11.910Z,129.23
2018-12-16T12:05:18.729Z,129.20
2018-12-16T12:07:25.666Z,131.23
2018-12-16T12:09:32.494Z,130.23
2018-12-16T12:11:39.635Z,129.00
2018-12-16T12:13:46.268Z,134.37
2018-12-16T12:15:53.454Z,132.30
2018-12-16T12:18:00.722Z,133.30
2018-12-16T12:20:07.775Z,135.53
2018-12-16T12:22:14.628Z,134.63
2018-12-16T12:24:21.533Z,132.33
2018-12-16T12:26:28.529Z,137.50
2018-12-16T12:28:35.629Z,133.20
2018-12-16T12:30:42.575Z,129.83
2018-12-16T12:32:49.344Z,116.37
2018-12-16T12:34:56.265Z,114.07
2018-12-16T12:37:03.168Z,110.77
2018-12-16T12:39:09.863Z,101.97
2018-12-16T12:41:16.701Z,101.20
2018-12-16T12:43:25.001Z,98.97
2018-12-16T12:45:31.990Z,98.93
2018-12-16T12:47:38.733Z,96.10
2018-12-16T12:49:45.554Z,96.13
2018-12-16T12:51:52.612Z,93.53
2018-12-16T12:53:59.415Z,94.50
2018-12-16T12:56:06.629Z,94.13
2018-12-16T12:58:13.499Z,94.27
2018-12-16T13:00:20.157Z,91.03
2018-12-16T13:02:26.850Z,87.30
2018-12-16T13:04:33.578Z,90.57
2018-12-16T13:06:40.289Z,86.00
2018-12-16T13:08:47.070Z,82.83
2018-12-16T13:10:53.887Z,80.43
2018-12-16T13:13:00.997Z,79.67
2018-12-16T13:15:07.941Z,82.47
2018-12-16T13:17:14.806Z,81.73
2018-12-16T13:19:21.382Z,81.23
2018-12-16T13:21:27.992Z,80.33
2018-12-16T13:23:35.091Z,81.87
2018-12-16T13:25:51.575Z,80.00
2018-12-16T13:27:58.409Z,82.47
2018-12-16T13:30:05.341Z,77.10
2018-12-16T13:32:12.205Z,78.67
2018-12-16T13:34:19.288Z,76.90
2018-12-16T13:36:26.270Z,80.77
2018-12-16T13:38:33.159Z,79.70
2018-12-16T13:40:39.941Z,77.37
2018-12-16T13:42:46.956Z,78.90
2018-12-16T13:44:53.435Z,75.57
2018-12-16T13:47:00.967Z,74.87
2018-12-16T13:49:07.721Z,94.13
2018-12-16T13:51:14.868Z,112.30
2018-12-16T13:53:21.512Z,107.83
2018-12-16T13:55:28.395Z,109.90
2018-12-16T13:57:36.172Z,98.33
2018-12-16T13:59:43.159Z,100.67
2018-12-16T14:01:50.002Z,97.00
2018-12-16T14:03:56.922Z,101.57
2018-12-16T14:06:04.334Z,96.90
2018-12-16T14:08:11.314Z,85.80
2018-12-16T14:10:18.286Z,85.03
2018-12-16T14:12:25.298Z,86.73
2018-12-16T14:14:32.496Z,78.47
2018-12-16T14:16:39.282Z,77.47
2018-12-16T14:18:46.182Z,77.23
2018-12-16T14:20:53.693Z,103.17
2018-12-16T14:23:00.681Z,117.33
2018-12-16T14:25:07.798Z,114.80
2018-12-16T14:27:14.609Z,113.77
2018-12-16T14:29:21.527Z,95.93
2018-12-16T14:31:28.286Z,102.30
2018-12-16T14:33:36.894Z,103.03
2018-12-16T14:35:44.983Z,108.73
2018-12-16T14:37:51.905Z,113.37
2018-12-16T14:39:59.207Z,113.10
2018-12-16T14:42:05.813Z,119.63
2018-12-16T14:44:12.802Z,107.50
2018-12-16T14:46:19.478Z,99.70
2018-12-16T14:48:26.074Z,90.93
2018-12-16T14:50:32.802Z,86.73
2018-12-16T14:52:39.900Z,82.97
2018-12-16T14:54:46.666Z,82.43
2018-12-16T14:56:53.745Z,81.20
2018-12-16T14:59:00.657Z,82.07
2018-12-16T15:01:07.656Z,80.37
2018-12-16T15:03:14.638Z,89.60
2018-12-16T15:05:21.492Z,96.50
2018-12-16T15:07:28.077Z,103.63
2018-12-16T15:09:35.018Z,94.53
2018-12-16T15:11:41.802Z,100.20
2018-12-16T15:13:49.054Z,108.30
2018-12-16T15:15:56.010Z,106.77
2018-12-16T15:18:02.886Z,110.50
2018-12-16T15:20:10.436Z,113.10
2018-12-16T15:22:17.135Z,114.87
2018-12-16T15:24:24.539Z,113.57
2018-12-16T15:26:31.227Z,114.83
2018-12-16T15:28:37.962Z,119.43
2018-12-16T15:30:44.800Z,120.60
2018-12-16T15:32:51.948Z,117.60
2018-12-16T15:34:58.566Z,118.60
2018-12-16T15:37:05.450Z,110.43
2018-12-16T15:39:12.379Z,115.47
2018-12-16T15:41:19.511Z,119.00
2018-12-16T15:43:26.337Z,117.73
2018-12-16T15:45:33.046Z,115.00
2018-12-16T15:47:40.686Z,99.37
2018-12-16T15:49:47.418Z,98.77
2018-12-16T15:51:54.173Z,90.13
2018-12-16T15:54:00.902Z,89.70
2018-12-16T15:56:09.481Z,90.53
2018-12-16T15:58:16.710Z,87.50
2018-12-16T16:00:26.881Z,99.63
2018-12-16T16:02:33.786Z,105.60
2018-12-16T16:04:40.903Z,111.07
2018-12-16T16:06:47.940Z,116.20
2018-12-16T16:08:54.904Z,108.57
2018-12-16T16:11:02.805Z,109.80
2018-12-16T16:13:10.247Z,130.43
2018-12-16T16:15:17.425Z,114.23
2018-12-16T16:17:24.442Z,105.43
2018-12-16T16:19:31.673Z,111.00
2018-12-16T16:21:39.186Z,100.33
2018-12-16T16:23:46.239Z,105.47
2018-12-16T16:25:53.013Z,109.03
2018-12-16T16:27:59.782Z,104.40
2018-12-16T16:30:07.311Z,103.97
2018-12-16T16:32:14.722Z,117.13
2018-12-16T16:34:21.479Z,103.37
2018-12-16T16:36:28.424Z,102.23
2018-12-16T16:38:35.755Z,105.90
2018-12-16T16:40:42.647Z,123.25
2018-12-16T16:42:50.169Z,120.67
2018-12-16T16:44:56.875Z,95.77
2018-12-16T16:47:04.179Z,105.50
2018-12-16T16:49:11.109Z,114.43
2018-12-16T16:51:18.299Z,120.53
2018-12-16T16:53:25.162Z,109.37
2018-12-16T16:55:32.190Z,103.07
2018-12-16T16:57:38.874Z,106.10
2018-12-16T16:59:45.880Z,101.63
2018-12-16T17:01:52.694Z,105.13
2018-12-16T17:03:59.517Z,91.80
2018-12-16T17:06:06.321Z,94.23
2018-12-16T17:08:13.558Z,105.83
2018-12-16T17:10:20.545Z,106.67
2018-12-16T17:12:27.580Z,94.30
2018-12-16T17:14:34.608Z,94.90
2018-12-16T17:16:41.613Z,87.47
2018-12-16T17:18:48.986Z,81.67
2018-12-16T17:20:56.042Z,80.40
2018-12-16T17:23:02.790Z,83.13
2018-12-16T17:25:09.799Z,75.47
2018-12-16T17:27:16.677Z,113.23
2018-12-16T17:29:23.358Z,103.80
2018-12-16T17:31:30.202Z,102.97
2018-12-16T17:33:36.971Z,87.37
2018-12-16T17:35:43.846Z,107.53
2018-12-16T17:37:50.542Z,107.33
2018-12-16T17:39:57.350Z,97.33
2018-12-16T17:42:04.642Z,116.00
2018-12-16T17:44:11.909Z,107.90
2018-12-16T17:46:19.069Z,92.80
2018-12-16T17:48:26.193Z,87.70
2018-12-16T17:50:32.995Z,80.57
2018-12-16T17:52:40.059Z,76.60
2018-12-16T17:54:46.677Z,83.60
2018-12-16T17:56:53.644Z,86.07
2018-12-16T17:59:00.438Z,83.93
2018-12-16T18:01:07.301Z,83.97
2018-12-16T18:03:15.908Z,78.40
2018-12-16T18:05:24.838Z,72.37
2018-12-16T18:07:32.893Z,81.10
2018-12-16T18:09:44.783Z,76.37
2018-12-16T18:11:55.034Z,73.03
2018-12-16T18:14:03.313Z,99.03
2018-12-16T18:16:10.664Z,96.83
2018-12-16T18:18:18.090Z,99.93
2018-12-16T18:20:25.443Z,102.60
2018-12-16T18:22:32.183Z,103.07
2018-12-16T18:24:39.088Z,96.43
2018-12-16T18:26:46.313Z,101.37
2018-12-16T18:28:52.934Z,102.40
2018-12-16T18:30:59.696Z,102.17
2018-12-16T18:33:07.462Z,106.90
2018-12-16T18:35:14.756Z,102.00
2018-12-16T18:37:21.501Z,109.77
2018-12-16T18:39:28.272Z,106.37
2018-12-16T18:41:35.433Z,101.00
2018-12-16T18:43:42.475Z,103.20
2018-12-16T18:45:49.298Z,107.40
2018-12-16T18:47:56.058Z,108.00
2018-12-16T18:50:02.809Z,112.63
2018-12-16T18:52:10.295Z,111.53
2018-12-16T18:54:17.432Z,112.57
2018-12-16T18:56:24.522Z,99.23
2018-12-16T18:58:31.442Z,112.63
2018-12-16T19:00:38.334Z,113.53
2018-12-16T19:02:45.263Z,110.90
2018-12-16T19:04:52.507Z,114.13
2018-12-16T19:06:59.239Z,112.57
2018-12-16T19:09:06.599Z,118.50
2018-12-16T19:11:13.383Z,110.17
2018-12-16T19:13:21.823Z,120.87
2018-12-16T19:15:29.294Z,119.03
2018-12-16T19:17:36.306Z,110.27
2018-12-16T19:19:43.097Z,115.93
2018-12-16T19:21:49.714Z,121.97
2018-12-16T19:23:56.794Z,120.43
2018-12-16T19:26:03.835Z,123.43
2018-12-16T19:28:11.088Z,122.87
2018-12-16T19:30:18.389Z,127.83
2018-12-16T19:32:25.187Z,120.83
2018-12-16T19:34:32.206Z,123.67
2018-12-16T19:36:38.882Z,129.53
2018-12-16T19:38:46.837Z,121.73
2018-12-16T19:40:54.329Z,115.63
2018-12-16T19:43:01.263Z,125.60
2018-12-16T19:45:08.735Z,121.77
2018-12-16T19:47:15.619Z,126.10
2018-12-16T19:49:22.460Z,123.53
2018-12-16T19:51:29.270Z,118.90
2018-12-16T19:53:36.322Z,125.33
2018-12-16T19:55:43.392Z,129.67
2018-12-16T19:57:50.245Z,128.33
2018-12-16T19:59:57.262Z,125.67
2018-12-16T20:02:04.162Z,125.93
2018-12-16T20:04:15.717Z,128.43
2018-12-16T20:06:27.192Z,132.53
2018-12-16T20:08:33.913Z,133.50
2018-12-16T20:10:40.723Z,132.20
2018-12-16T20:12:47.701Z,136.00
2018-12-16T20:14:54.281Z,134.13
2018-12-16T20:17:01.037Z,134.97
2018-12-16T20:19:08.116Z,135.27
2018-12-16T20:21:15.325Z,138.57
2018-12-16T20:23:21.945Z,140.37
2018-12-16T20:25:28.741Z,139.33
2018-12-16T20:27:35.706Z,137.63
2018-12-16T20:29:42.527Z,139.57
2018-12-16T20:31:49.630Z,142.33
2018-12-16T20:33:56.442Z,145.87
2018-12-16T20:36:03.154Z,147.03
2018-12-16T20:38:10.716Z,154.43
2018-12-16T20:40:17.830Z,152.70
2018-12-16T20:42:24.893Z,156.73
2018-12-16T20:44:32.061Z,148.57
2018-12-16T20:46:39.364Z,149.43
2018-12-16T20:48:46.331Z,151.00
2018-12-16T20:50:53.439Z,149.53
2018-12-16T20:53:00.230Z,146.30
2018-12-16T20:55:07.618Z,152.27
2018-12-16T20:57:18.851Z,161.10
2018-12-16T20:59:23.626Z,155.90
2018-12-16T21:01:30.537Z,160.17
2018-12-16T21:03:37.485Z,160.73
2018-12-16T21:05:44.326Z,159.43
2018-12-16T21:07:51.265Z,162.90
2018-12-16T21:09:58.078Z,161.20
2018-12-16T21:12:07.184Z,159.30
2018-12-16T21:14:20.245Z,160.60
2018-12-16T21:16:31.494Z,157.07
2018-12-16T21:18:38.554Z,155.30
2018-12-16T21:20:45.938Z,167.40
2018-12-16T21:22:52.901Z,159.57
2018-12-16T21:24:59.830Z,159.43
2018-12-16T21:27:07.073Z,156.37
2018-12-16T21:29:14.004Z,159.43
2018-12-16T21:31:20.768Z,160.33
2018-12-16T21:33:27.642Z,164.43
2018-12-16T21:35:34.598Z,161.13
2018-12-16T21:37:41.668Z,160.83
2018-12-16T21:39:48.510Z,160.23
2018-12-16T21:41:55.268Z,156.83
2018-12-16T21:44:02.255Z,163.80
2018-12-16T21:46:09.268Z,165.13
2018-12-16T21:48:17.073Z,166.73
2018-12-16T21:50:23.974Z,166.20
2018-12-16T21:52:30.535Z,166.80
2018-12-16T21:54:37.442Z,171.90
2018-12-16T21:56:44.435Z,168.37
2018-12-16T21:58:51.499Z,169.97
2018-12-16T22:00:58.507Z,166.17
2018-12-16T22:03:05.116Z,165.23
2018-12-16T22:05:13.806Z,167.97
2018-12-16T22:07:20.750Z,168.23
2018-12-16T22:09:27.802Z,170.43
2018-12-16T22:11:34.964Z,171.00
2018-12-16T22:13:41.757Z,171.10
2018-12-16T22:15:48.840Z,165.37
2018-12-16T22:17:55.682Z,167.10
2018-12-16T22:20:02.655Z,169.07
2018-12-16T22:22:09.494Z,166.20
2018-12-16T22:24:16.450Z,168.53
2018-12-16T22:26:23.302Z,161.87
2018-12-16T22:28:30.011Z,166.00
2018-12-16T22:30:36.889Z,164.47
2018-12-16T22:32:43.808Z,165.00
2018-12-16T22:34:50.619Z,166.23
2018-12-16T22:36:57.493Z,164.47
2018-12-16T22:39:04.902Z,166.73
2018-12-16T22:41:11.618Z,162.70
2018-12-16T22:43:18.423Z,167.00
2018-12-16T22:45:25.052Z,168.13
2018-12-16T22:47:31.895Z,164.50
2018-12-16T22:49:39.557Z,168.80
2018-12-16T22:51:46.208Z,170.10
2018-12-16T22:53:53.037Z,169.43
2018-12-16T22:55:59.825Z,168.23
2018-12-16T22:58:06.920Z,175.83
2018-12-16T23:00:17.980Z,172.13
2018-12-16T23:02:24.678Z,169.10
2018-12-16T23:04:32.257Z,173.47
2018-12-16T23:06:39.065Z,171.10
2018-12-16T23:08:45.878Z,173.30
2018-12-16T23:10:52.808Z,175.87
2018-12-16T23:12:59.481Z,174.10
2018-12-16T23:15:06.395Z,176.77
2018-12-16T23:17:13.158Z,177.50
2018-12-16T23:19:20.134Z,175.83
2018-12-16T23:21:27.270Z,176.80
2018-12-16T23:23:34.409Z,175.30
2018-12-16T23:25:41.202Z,170.47
2018-12-16T23:27:53.997Z,173.33
2018-12-16T23:29:56.871Z,166.83
2018-12-16T23:32:03.693Z,174.53
2018-12-16T23:34:10.690Z,176.10
2018-12-16T23:36:17.414Z,178.87
2018-12-16T23:38:24.163Z,175.77
2018-12-16T23:40:30.821Z,178.33
2018-12-16T23:42:37.482Z,178.53
2018-12-16T23:44:44.932Z,170.97
2018-12-16T23:46:51.801Z,175.37
2018-12-16T23:48:58.670Z,173.10
2018-12-16T23:51:05.659Z,180.47
2018-12-16T23:53:12.254Z,178.93
2018-12-16T23:55:19.026Z,179.83
2018-12-16T23:57:25.808Z,178.73
2018-12-16T23:59:32.749Z,175.57
